Alkabo, North Dakota
Current Conditions -  °F | °C
As of 1:52 AM on Friday 24 Oct 2014 (Local Time) from KISN Reporting Station
Clear Clear  
Wind Chill: 42°   Ceiling: Unl
Heat Index: 42°   Visibility: 10mi
Dew Point: 34°   Wind: 0mph
Humidity: 73%   Direction: NA
Pressure: 29.79"   Gusts: NA
Location:  48.5901°N, 103.922°W
Report Text: KISN 240652Z AUTO 00000KT 10SM CLR 06/01 A2979 RMK AO2 SLP093 T00560011
Loading
Personal Weather Stations






























Interactive Weather Map
Tropical Storm Tracking
New forecast layout! Learn more

10-Day Weather Forecast

Advertisements
Track Severe Weather on mobile